createdAt,value
2023-05-24T00:00:19.169Z,76.90
2023-05-24T00:02:48.263Z,76.80
2023-05-24T00:05:16.963Z,76.80
2023-05-24T00:07:45.737Z,76.90
2023-05-24T00:10:16.009Z,76.90
2023-05-24T00:12:44.616Z,77.00
2023-05-24T00:15:13.410Z,77.00
2023-05-24T00:17:42.902Z,77.00
2023-05-24T00:20:14.402Z,77.00
2023-05-24T00:22:43.510Z,77.10
2023-05-24T00:25:12.040Z,77.10
2023-05-24T00:27:44.774Z,78.10
2023-05-24T00:30:13.860Z,77.90
2023-05-24T00:32:42.455Z,78.40
2023-05-24T00:35:11.120Z,78.20
2023-05-24T00:37:40.335Z,78.30
2023-05-24T00:40:10.383Z,78.30
2023-05-24T00:42:38.947Z,78.30
2023-05-24T00:45:10.121Z,78.30
2023-05-24T00:47:38.606Z,78.30
2023-05-24T00:50:09.772Z,78.30
2023-05-24T00:52:38.824Z,78.40
2023-05-24T00:55:08.757Z,78.50
2023-05-24T00:57:37.989Z,78.40
2023-05-24T01:00:09.719Z,78.40
2023-05-24T01:02:39.862Z,78.50
2023-05-24T01:05:09.558Z,78.60
2023-05-24T01:07:52.646Z,78.70
2023-05-24T01:10:35.900Z,78.90
2023-05-24T01:13:13.795Z,79.00
2023-05-24T01:15:53.885Z,79.00
2023-05-24T01:18:30.560Z,79.10
2023-05-24T01:21:08.088Z,79.20
2023-05-24T01:23:46.761Z,79.10
2023-05-24T01:26:38.953Z,79.70
2023-05-24T01:29:09.722Z,79.70
2023-05-24T01:31:38.587Z,79.70
2023-05-24T01:34:07.768Z,79.70
2023-05-24T01:36:36.410Z,79.60
2023-05-24T01:39:05.901Z,79.80
2023-05-24T01:41:41.303Z,80.00
2023-05-24T01:44:16.937Z,80.70
2023-05-24T01:46:51.402Z,80.80
2023-05-24T01:49:23.726Z,81.10
2023-05-24T01:51:56.555Z,81.10
2023-05-24T01:54:29.268Z,81.00
2023-05-24T01:56:58.761Z,80.80
2023-05-24T01:59:31.387Z,81.00
2023-05-24T02:01:59.796Z,80.90
2023-05-24T02:04:28.326Z,80.90
2023-05-24T02:06:56.713Z,81.00
2023-05-24T02:09:25.209Z,81.00
2023-05-24T02:11:53.850Z,81.00
2023-05-24T02:14:22.760Z,80.90
2023-05-24T02:16:52.614Z,80.80
2023-05-24T02:19:21.860Z,80.90
2023-05-24T02:21:51.529Z,80.90
2023-05-24T02:24:20.466Z,81.00
2023-05-24T02:26:48.910Z,81.00
2023-05-24T02:29:18.543Z,80.80
2023-05-24T02:31:48.041Z,80.90
2023-05-24T02:34:17.829Z,81.10
2023-05-24T02:36:46.583Z,81.10
2023-05-24T02:39:15.258Z,81.10
2023-05-24T02:41:43.617Z,81.30
2023-05-24T02:44:12.023Z,81.10
2023-05-24T02:46:40.455Z,81.20
2023-05-24T02:49:10.136Z,81.20
2023-05-24T02:51:40.561Z,81.20
2023-05-24T02:54:09.009Z,81.20
2023-05-24T02:56:37.699Z,81.20
2023-05-24T02:59:06.604Z,81.20
2023-05-24T03:01:35.633Z,81.20
2023-05-24T03:04:04.322Z,81.20
2023-05-24T03:06:35.328Z,81.20
2023-05-24T03:09:05.643Z,81.20
2023-05-24T03:11:34.053Z,81.20
2023-05-24T03:14:03.662Z,81.30
2023-05-24T03:16:32.114Z,81.40
2023-05-24T03:19:02.065Z,81.50
2023-05-24T03:21:30.624Z,81.50
2023-05-24T03:23:59.452Z,81.50
2023-05-24T03:26:29.800Z,81.60
2023-05-24T03:28:58.261Z,81.80
2023-05-24T03:31:26.870Z,81.90
2023-05-24T03:33:55.487Z,81.90
2023-05-24T03:36:28.712Z,82.10
2023-05-24T03:38:59.307Z,82.20
2023-05-24T03:41:29.257Z,82.20
2023-05-24T03:43:57.732Z,82.20
2023-05-24T03:46:26.173Z,82.40
2023-05-24T03:51:38.390Z,82.80
2023-05-24T03:54:07.361Z,83.30
2023-05-24T03:56:38.906Z,83.30
2023-05-24T03:59:07.505Z,83.50
2023-05-24T04:01:36.834Z,83.80
2023-05-24T04:04:05.732Z,83.70
2023-05-24T04:06:37.011Z,83.60
2023-05-24T04:09:06.356Z,84.10
2023-05-24T04:11:37.110Z,84.30
2023-05-24T04:14:05.605Z,84.20
2023-05-24T04:16:39.862Z,84.40
2023-05-24T04:19:08.612Z,84.20
2023-05-24T04:21:37.502Z,84.20
2023-05-24T04:42:33.855Z,85.50
2023-05-24T04:45:04.684Z,85.70
2023-05-24T04:47:34.279Z,85.80
2023-05-24T04:50:04.594Z,85.90
2023-05-24T04:52:33.510Z,86.10
2023-05-24T04:55:01.910Z,86.00
2023-05-24T04:57:31.766Z,85.90
2023-05-24T05:00:18.869Z,85.80
2023-05-24T05:02:47.959Z,85.70
2023-05-24T05:05:19.728Z,85.80
2023-05-24T05:07:48.219Z,85.60
2023-05-24T05:10:16.802Z,85.70
2023-05-24T05:12:46.610Z,85.70
2023-05-24T05:15:15.152Z,85.50
2023-05-24T05:17:43.670Z,85.60
2023-05-24T05:20:12.375Z,85.50
2023-05-24T05:22:40.919Z,85.50
2023-05-24T05:25:10.078Z,85.30
2023-05-24T05:27:38.562Z,85.20
2023-05-24T05:30:09.876Z,85.00
2023-05-24T05:32:38.773Z,85.10
2023-05-24T05:35:08.281Z,84.90
2023-05-24T05:37:36.684Z,85.10
2023-05-24T05:40:05.515Z,85.00
2023-05-24T05:42:33.921Z,85.00
2023-05-24T05:45:02.253Z,84.80
2023-05-24T05:47:32.032Z,84.80
2023-05-24T05:50:00.564Z,84.70
2023-05-24T05:52:28.971Z,84.80
2023-05-24T05:54:57.627Z,84.60
2023-05-24T05:57:26.195Z,84.20
2023-05-24T05:59:54.794Z,84.00
2023-05-24T06:02:23.962Z,83.90
2023-05-24T06:04:54.283Z,83.70
2023-05-24T06:07:23.041Z,83.50
2023-05-24T06:09:51.689Z,83.60
2023-05-24T06:12:20.102Z,83.30
2023-05-24T06:14:51.003Z,83.10
2023-05-24T06:17:24.634Z,82.80
2023-05-24T06:19:55.942Z,82.50
2023-05-24T06:22:24.700Z,82.50
2023-05-24T06:24:53.110Z,82.40
2023-05-24T06:27:21.879Z,82.40
2023-05-24T06:29:50.317Z,81.90
2023-05-24T06:32:18.928Z,81.60
2023-05-24T06:34:47.630Z,81.40
2023-05-24T06:37:17.955Z,81.10
2023-05-24T06:39:46.380Z,81.10
2023-05-24T06:42:14.878Z,80.90
2023-05-24T06:44:43.271Z,80.40
2023-05-24T06:47:12.099Z,81.00
2023-05-24T06:49:40.665Z,80.10
2023-05-24T06:52:09.295Z,79.90
2023-05-24T06:54:39.241Z,79.40
2023-05-24T06:57:09.064Z,79.10
2023-05-24T06:59:37.684Z,78.80
2023-05-24T07:02:06.729Z,78.70
2023-05-24T07:04:35.419Z,78.70
2023-05-24T07:07:04.267Z,78.50
2023-05-24T07:09:32.845Z,78.30
2023-05-24T07:12:02.976Z,78.20
2023-05-24T07:14:31.822Z,77.80
2023-05-24T07:17:00.403Z,77.40
2023-05-24T07:19:30.019Z,77.90
2023-05-24T07:21:58.696Z,77.70
2023-05-24T07:24:27.064Z,76.90
2023-05-24T07:26:56.964Z,76.40
2023-05-24T07:29:27.840Z,76.10
2023-05-24T07:31:58.289Z,75.40
2023-05-24T07:34:28.117Z,75.40
2023-05-24T07:36:56.841Z,75.50
2023-05-24T07:39:25.380Z,75.50
2023-05-24T07:41:53.999Z,75.40
2023-05-24T07:44:22.422Z,75.20
2023-05-24T07:46:52.456Z,73.50
2023-05-24T07:49:21.218Z,73.50
2023-05-24T07:51:50.133Z,72.90
2023-05-24T07:54:18.395Z,73.00
2023-05-24T07:56:47.338Z,72.70
2023-05-24T07:59:16.171Z,72.50
2023-05-24T08:01:44.624Z,72.40
2023-05-24T08:04:14.368Z,72.10
2023-05-24T08:06:43.311Z,72.10
2023-05-24T08:09:12.518Z,71.30
2023-05-24T08:11:42.044Z,71.00
2023-05-24T08:14:10.668Z,71.00
2023-05-24T08:16:39.267Z,70.70
2023-05-24T08:19:08.036Z,70.50
2023-05-24T08:21:39.054Z,70.00
2023-05-24T08:24:09.456Z,68.80
2023-05-24T08:26:39.980Z,68.30
2023-05-24T08:29:08.753Z,68.80
2023-05-24T08:31:38.391Z,68.90
2023-05-24T08:34:07.151Z,69.40
2023-05-24T08:36:35.616Z,69.60
2023-05-24T08:39:06.864Z,68.60
2023-05-24T08:41:37.738Z,68.60
2023-05-24T08:44:07.825Z,68.10
2023-05-24T08:46:37.564Z,66.30
2023-05-24T08:49:07.768Z,66.70
2023-05-24T08:51:38.718Z,66.30
2023-05-24T08:54:10.161Z,66.20
2023-05-24T08:56:39.168Z,66.20
2023-05-24T08:59:08.278Z,66.30
2023-05-24T09:01:59.646Z,65.60
2023-05-24T09:04:29.191Z,65.20
2023-05-24T09:06:58.685Z,64.70
2023-05-24T09:09:30.181Z,65.40
2023-05-24T09:12:01.910Z,65.00
2023-05-24T09:14:30.966Z,65.40
2023-05-24T09:16:59.974Z,64.50
2023-05-24T09:19:29.615Z,65.00
2023-05-24T09:21:59.005Z,65.20
2023-05-24T09:24:28.820Z,65.30
2023-05-24T09:27:06.173Z,65.50
2023-05-24T09:29:37.776Z,65.20
2023-05-24T09:32:09.209Z,64.50
2023-05-24T09:34:41.617Z,64.20
2023-05-24T09:37:16.703Z,64.30
2023-05-24T09:39:48.277Z,64.50
2023-05-24T09:42:17.730Z,64.10
2023-05-24T09:44:47.348Z,64.50
2023-05-24T09:47:16.624Z,64.40
2023-05-24T09:49:48.470Z,64.50
2023-05-24T09:52:17.562Z,64.30
2023-05-24T09:54:48.185Z,62.60
2023-05-24T09:57:18.059Z,62.20
2023-05-24T09:59:46.749Z,62.80
2023-05-24T10:02:15.193Z,62.80
2023-05-24T10:04:43.800Z,61.80
2023-05-24T10:07:13.437Z,61.40
2023-05-24T10:09:42.737Z,60.60
2023-05-24T10:12:12.573Z,60.00
2023-05-24T10:14:40.995Z,60.00
2023-05-24T10:17:10.189Z,60.00
2023-05-24T10:19:39.532Z,59.30
2023-05-24T10:22:09.247Z,59.70
2023-05-24T10:24:42.215Z,59.30
2023-05-24T10:27:15.757Z,59.20
2023-05-24T10:29:52.237Z,59.50
2023-05-24T10:32:23.052Z,58.90
2023-05-24T10:34:54.163Z,58.60
2023-05-24T10:37:22.897Z,58.10
2023-05-24T10:39:52.406Z,57.70
2023-05-24T10:42:22.236Z,56.70
2023-05-24T10:44:50.689Z,56.70
2023-05-24T10:47:22.306Z,56.00
2023-05-24T10:49:53.043Z,56.50
2023-05-24T10:52:22.191Z,56.90
2023-05-24T10:55:09.941Z,56.80
2023-05-24T10:57:40.969Z,55.30
2023-05-24T11:03:05.246Z,55.70
2023-05-24T11:05:50.113Z,55.50
2023-05-24T11:08:24.734Z,55.70
2023-05-24T11:11:19.047Z,55.90
2023-05-24T11:13:58.199Z,56.10
2023-05-24T11:16:40.471Z,55.90
2023-05-24T11:19:18.676Z,56.30
2023-05-24T11:21:48.787Z,56.60
2023-05-24T11:24:18.761Z,56.60
2023-05-24T11:26:47.947Z,56.70
2023-05-24T11:29:21.162Z,56.00
2023-05-24T11:31:50.845Z,55.50
2023-05-24T11:34:19.530Z,55.60
2023-05-24T11:36:48.557Z,55.30
2023-05-24T11:39:18.084Z,54.90
2023-05-24T11:41:46.746Z,55.00
2023-05-24T11:44:20.698Z,54.80
2023-05-24T11:46:49.090Z,54.70
2023-05-24T11:49:18.448Z,55.10
2023-05-24T11:51:47.308Z,55.00
2023-05-24T11:54:16.353Z,54.60
2023-05-24T11:56:44.652Z,54.70
2023-05-24T11:59:17.737Z,54.40
2023-05-24T12:01:47.493Z,54.30
2023-05-24T12:04:15.974Z,54.00
2023-05-24T12:06:45.180Z,53.70
2023-05-24T12:09:14.737Z,53.60
2023-05-24T12:11:44.574Z,53.50
2023-05-24T12:14:17.677Z,53.40
2023-05-24T12:16:48.365Z,52.80
2023-05-24T12:19:32.303Z,51.70
2023-05-24T12:22:01.731Z,52.00
2023-05-24T12:24:30.700Z,52.50
2023-05-24T12:27:07.069Z,52.30
2023-05-24T12:29:37.886Z,52.70
2023-05-24T12:32:12.825Z,52.40
2023-05-24T12:34:43.469Z,52.80
2023-05-24T12:37:13.814Z,52.80
2023-05-24T12:39:44.267Z,52.60
2023-05-24T12:42:14.007Z,52.40
2023-05-24T12:44:43.032Z,52.10
2023-05-24T12:47:13.056Z,51.50
2023-05-24T12:49:41.589Z,51.50
2023-05-24T12:52:09.929Z,51.30
2023-05-24T12:54:38.266Z,50.90
2023-05-24T12:57:07.176Z,50.00
2023-05-24T12:59:35.679Z,50.20
2023-05-24T13:02:04.140Z,49.60
2023-05-24T13:04:36.097Z,49.80
2023-05-24T13:07:04.478Z,49.90
2023-05-24T13:09:34.282Z,50.00
2023-05-24T13:12:03.174Z,49.70
2023-05-24T13:14:31.583Z,49.30
2023-05-24T13:17:00.303Z,49.20
2023-05-24T13:19:29.111Z,48.90
2023-05-24T13:21:58.904Z,49.10
2023-05-24T13:24:27.862Z,49.20
2023-05-24T13:26:58.867Z,49.20
2023-05-24T13:29:39.391Z,49.40
2023-05-24T13:32:14.192Z,49.30
2023-05-24T13:34:42.662Z,49.60
2023-05-24T13:37:12.559Z,49.30
2023-05-24T13:39:41.051Z,48.60
2023-05-24T13:42:10.723Z,48.30
2023-05-24T13:44:40.217Z,48.10
2023-05-24T13:47:09.149Z,48.20
2023-05-24T13:49:37.964Z,47.30
2023-05-24T13:52:06.559Z,47.70
2023-05-24T13:54:36.709Z,48.00
2023-05-24T13:57:06.698Z,48.10
2023-05-24T13:59:35.113Z,48.20
2023-05-24T14:02:03.576Z,48.20
2023-05-24T14:04:31.952Z,48.60
2023-05-24T14:07:00.246Z,48.50
2023-05-24T14:09:28.747Z,48.50
2023-05-24T14:11:58.611Z,48.30
2023-05-24T14:16:58.337Z,48.40
2023-05-24T14:19:26.734Z,47.20
2023-05-24T14:21:55.149Z,46.90
2023-05-24T14:24:24.009Z,45.90
2023-05-24T14:26:52.432Z,45.00
2023-05-24T14:29:22.111Z,44.00
2023-05-24T14:31:51.362Z,42.90
2023-05-24T14:34:19.830Z,43.10
2023-05-24T14:36:48.704Z,42.80
2023-05-24T14:39:17.341Z,43.00
2023-05-24T14:41:45.732Z,42.70
2023-05-24T14:44:14.090Z,42.00
2023-05-24T14:46:43.949Z,42.30
2023-05-24T14:49:12.660Z,42.80
2023-05-24T14:51:41.005Z,43.70
2023-05-24T14:54:12.523Z,43.00
2023-05-24T14:56:41.164Z,43.80
2023-05-24T14:59:10.805Z,43.90
2023-05-24T15:01:39.201Z,44.30
2023-05-24T15:04:09.267Z,44.70
2023-05-24T15:06:37.580Z,44.70
2023-05-24T15:09:07.754Z,44.20
2023-05-24T15:11:36.645Z,44.40
2023-05-24T15:14:05.550Z,44.20
2023-05-24T15:16:34.005Z,44.70
2023-05-24T15:19:02.516Z,44.90
2023-05-24T15:21:32.972Z,44.90
2023-05-24T15:24:01.409Z,44.50
2023-05-24T15:26:29.740Z,44.40
2023-05-24T15:29:01.121Z,44.20
2023-05-24T15:31:29.590Z,44.10
2023-05-24T15:33:57.887Z,44.10
2023-05-24T15:36:26.441Z,44.10
2023-05-24T15:38:56.229Z,43.80
2023-05-24T15:41:24.854Z,44.20
2023-05-24T15:43:53.477Z,43.50
2023-05-24T15:46:23.028Z,43.60
2023-05-24T15:48:51.521Z,44.10
2023-05-24T15:53:51.394Z,44.20
2023-05-24T15:56:21.680Z,44.60
2023-05-24T15:58:50.188Z,44.70
2023-05-24T16:01:18.652Z,44.80
2023-05-24T16:03:47.338Z,44.80
2023-05-24T16:06:15.852Z,45.00
2023-05-24T16:08:44.200Z,45.30
2023-05-24T16:11:13.460Z,45.50
2023-05-24T16:13:43.376Z,45.80
2023-05-24T16:16:11.818Z,46.00
2023-05-24T16:18:40.254Z,46.00
2023-05-24T16:21:08.749Z,46.10
2023-05-24T16:23:37.249Z,46.00
2023-05-24T16:26:05.817Z,46.10
2023-05-24T16:28:34.234Z,47.00
2023-05-24T16:31:04.347Z,46.90
2023-05-24T16:33:32.696Z,47.80
2023-05-24T16:36:04.525Z,49.70
2023-05-24T16:38:32.976Z,50.40
2023-05-24T16:41:01.431Z,51.10
2023-05-24T16:43:30.506Z,52.60
2023-05-24T16:45:59.226Z,52.10
2023-05-24T16:48:31.865Z,52.30
2023-05-24T16:51:01.163Z,52.30
2023-05-24T16:53:29.701Z,52.70
2023-05-24T16:55:58.471Z,52.80
2023-05-24T16:58:28.973Z,53.20
2023-05-24T17:30:44.508Z,54.00
2023-05-24T17:33:13.064Z,54.30
2023-05-24T17:35:43.057Z,54.30
2023-05-24T17:38:11.786Z,54.50
2023-05-24T17:40:40.562Z,54.60
2023-05-24T17:43:09.278Z,54.80
2023-05-24T17:45:37.946Z,55.10
2023-05-24T17:48:08.321Z,55.20
2023-05-24T17:50:36.956Z,55.50
2023-05-24T17:53:10.977Z,55.40
2023-05-24T17:55:47.729Z,55.60
2023-05-24T17:58:16.319Z,55.60
2023-05-24T18:00:44.834Z,55.60
2023-05-24T18:03:14.865Z,55.80
2023-05-24T18:17:43.812Z,56.00
2023-05-24T18:20:15.585Z,56.30
2023-05-24T18:22:44.240Z,56.20
2023-05-24T18:25:13.398Z,56.40
2023-05-24T18:27:42.242Z,56.40
2023-05-24T18:30:11.662Z,56.50
2023-05-24T18:32:48.887Z,56.50
2023-05-24T18:35:28.178Z,56.60
2023-05-24T18:37:56.614Z,56.70
2023-05-24T18:40:25.072Z,56.70
2023-05-24T18:42:53.530Z,56.80
2023-05-24T18:45:22.977Z,56.80
2023-05-24T18:47:51.827Z,56.80
2023-05-24T18:50:23.208Z,57.00
2023-05-24T18:52:53.661Z,57.30
2023-05-24T18:55:22.540Z,57.70
2023-05-24T18:57:51.482Z,58.00
2023-05-24T19:00:22.887Z,58.10
2023-05-24T19:02:51.887Z,59.10
2023-05-24T19:05:21.585Z,58.80
2023-05-24T19:07:50.447Z,58.60
2023-05-24T19:10:21.009Z,58.50
2023-05-24T19:12:49.685Z,58.60
2023-05-24T19:15:18.580Z,58.60
2023-05-24T19:17:47.038Z,58.60
2023-05-24T19:20:15.604Z,58.80
2023-05-24T19:22:44.064Z,58.70
2023-05-24T19:25:12.583Z,58.90
2023-05-24T19:27:57.879Z,59.10
2023-05-24T19:30:27.766Z,59.30
2023-05-24T19:32:56.395Z,59.40
2023-05-24T19:35:25.017Z,59.40
2023-05-24T19:37:53.703Z,59.60
2023-05-24T19:40:22.445Z,59.90
2023-05-24T19:42:57.220Z,59.90
2023-05-24T19:45:26.290Z,59.90
2023-05-24T19:47:54.660Z,60.00
2023-05-24T19:50:24.545Z,60.10
2023-05-24T19:52:54.303Z,60.20
2023-05-24T19:55:22.685Z,60.20
2023-05-24T19:57:52.987Z,60.30
2023-05-24T20:00:21.488Z,60.50
2023-05-24T20:02:50.092Z,60.50
2023-05-24T20:05:18.919Z,60.80
2023-05-24T20:07:47.415Z,61.70
2023-05-24T20:10:15.982Z,60.90
2023-05-24T20:53:03.596Z,62.60
2023-05-24T20:55:33.949Z,62.80
2023-05-24T20:58:03.778Z,62.70
2023-05-24T21:00:33.849Z,62.90
2023-05-24T21:03:02.546Z,63.00
2023-05-24T21:05:31.142Z,63.10
2023-05-24T21:07:59.687Z,63.30
2023-05-24T21:10:30.076Z,63.60
2023-05-24T21:12:58.842Z,64.20
2023-05-24T21:15:27.251Z,65.20
2023-05-24T21:17:55.812Z,66.00
2023-05-24T21:20:24.894Z,66.20
2023-05-24T21:22:53.666Z,66.70
2023-05-24T21:25:22.064Z,66.80
2023-05-24T21:27:51.897Z,67.20
2023-05-24T21:30:20.733Z,67.40
2023-05-24T21:32:49.216Z,68.30
2023-05-24T21:35:17.678Z,68.20
2023-05-24T21:37:46.574Z,68.20
2023-05-24T21:40:15.031Z,68.60
2023-05-24T21:42:44.334Z,68.90
2023-05-24T21:45:14.394Z,68.70
2023-05-24T21:47:43.500Z,69.60
2023-05-24T21:50:12.565Z,69.50
2023-05-24T21:52:41.016Z,69.80
2023-05-24T21:55:10.142Z,69.90
2023-05-24T21:57:38.791Z,70.20
2023-05-24T22:00:08.769Z,70.80
2023-05-24T22:02:38.737Z,70.70
2023-05-24T22:05:08.388Z,70.90
2023-05-24T22:07:37.712Z,71.10
2023-05-24T22:10:07.462Z,70.70
2023-05-24T22:12:35.945Z,70.70
2023-05-24T22:15:05.011Z,70.50
2023-05-24T22:17:37.175Z,70.50
2023-05-24T22:20:08.842Z,70.50
2023-05-24T22:22:40.239Z,70.50
2023-05-24T22:25:11.033Z,70.50
2023-05-24T22:27:39.418Z,70.70
2023-05-24T22:30:09.829Z,71.10
2023-05-24T22:32:38.674Z,70.90
2023-05-24T22:35:09.353Z,70.90
2023-05-24T22:37:37.831Z,70.90
2023-05-24T22:40:07.857Z,70.60
2023-05-24T22:42:36.220Z,70.80
2023-05-24T22:45:04.994Z,70.50
2023-05-24T22:47:34.758Z,70.60
2023-05-24T22:50:04.161Z,70.50
2023-05-24T22:52:34.963Z,70.50
2023-05-24T22:55:03.889Z,70.40
2023-05-24T22:57:32.301Z,70.50
2023-05-24T23:00:01.066Z,70.60
2023-05-24T23:02:29.959Z,70.40
2023-05-24T23:05:00.313Z,70.50
2023-05-24T23:07:29.053Z,70.60
2023-05-24T23:10:00.721Z,70.60
2023-05-24T23:12:29.253Z,70.60
2023-05-24T23:14:58.551Z,70.60
2023-05-24T23:17:27.148Z,70.80
2023-05-24T23:19:55.754Z,70.80
2023-05-24T23:22:26.365Z,70.80
2023-05-24T23:24:54.960Z,70.60
2023-05-24T23:27:27.741Z,70.80
2023-05-24T23:29:56.413Z,70.60
2023-05-24T23:32:24.783Z,70.80
2023-05-24T23:34:53.135Z,70.70
2023-05-24T23:37:21.643Z,70.60
2023-05-24T23:39:50.086Z,70.60
2023-05-24T23:42:18.515Z,71.20
2023-05-24T23:44:48.445Z,71.60
2023-05-24T23:47:17.126Z,71.70
2023-05-24T23:49:45.764Z,71.80
2023-05-24T23:52:15.484Z,72.10
2023-05-24T23:54:43.865Z,71.90
2023-05-24T23:57:12.326Z,72.20
2023-05-24T23:59:40.712Z,72.00
